createdAt,value
2022-09-20T00:00:28.301Z,47.70
2022-09-20T00:01:28.786Z,47.21
2022-09-20T00:02:28.917Z,49.95
2022-09-20T00:03:29.071Z,48.18
2022-09-20T00:04:29.381Z,50.43
2022-09-20T00:05:29.749Z,50.11
2022-09-20T00:06:29.940Z,49.63
2022-09-20T00:07:30.248Z,48.82
2022-09-20T00:08:30.442Z,63.97
2022-09-20T00:09:30.771Z,54.62
2022-09-20T00:10:31.109Z,49.95
2022-09-20T00:11:31.399Z,50.60
2022-09-20T00:12:31.641Z,47.05
2022-09-20T00:13:31.938Z,49.79
2022-09-20T00:14:32.242Z,47.05
2022-09-20T00:15:32.493Z,48.34
2022-09-20T00:16:32.880Z,46.57
2022-09-20T00:17:33.104Z,51.08
2022-09-20T00:18:33.424Z,47.05
2022-09-20T00:19:33.695Z,47.37
2022-09-20T00:20:33.949Z,55.27
2022-09-20T00:21:34.233Z,48.66
2022-09-20T00:22:34.550Z,47.53
2022-09-20T00:23:34.861Z,52.53
2022-09-20T00:24:35.193Z,49.95
2022-09-20T00:25:35.414Z,48.98
2022-09-20T00:26:35.784Z,46.73
2022-09-20T00:27:36.047Z,46.25
2022-09-20T00:28:36.345Z,49.79
2022-09-20T00:29:36.659Z,48.82
2022-09-20T00:30:37.006Z,46.89
2022-09-20T00:31:37.272Z,46.41
2022-09-20T00:32:37.433Z,49.95
2022-09-20T00:33:37.717Z,47.37
2022-09-20T00:34:38.057Z,47.86
2022-09-20T00:35:38.380Z,47.53
2022-09-20T00:36:38.693Z,56.56
2022-09-20T00:37:38.989Z,50.43
2022-09-20T00:38:39.313Z,48.98
2022-09-20T00:39:39.607Z,48.34
2022-09-20T00:40:40.012Z,49.15
2022-09-20T00:41:40.171Z,60.26
2022-09-20T00:42:40.685Z,64.61
2022-09-20T00:43:40.840Z,61.39
2022-09-20T00:44:41.173Z,61.07
2022-09-20T00:45:41.980Z,60.26
2022-09-20T00:46:41.725Z,80.08
2022-09-20T00:47:41.876Z,48.50
2022-09-20T00:48:42.196Z,59.14
2022-09-20T00:49:42.430Z,48.18
2022-09-20T00:50:42.818Z,48.34
2022-09-20T00:51:43.105Z,47.37
2022-09-20T00:52:43.401Z,48.02
2022-09-20T00:53:43.725Z,49.31
2022-09-20T00:54:43.991Z,47.86
2022-09-20T00:55:44.325Z,49.15
2022-09-20T00:56:44.623Z,47.37
2022-09-20T00:57:44.963Z,47.05
2022-09-20T00:58:45.242Z,51.24
2022-09-20T00:59:45.595Z,48.34
2022-09-20T01:00:46.027Z,47.53
2022-09-20T01:01:46.199Z,53.17
2022-09-20T01:02:46.489Z,51.56
2022-09-20T01:03:46.772Z,49.47
2022-09-20T01:04:47.113Z,47.37
2022-09-20T01:05:47.405Z,47.21
2022-09-20T01:06:47.739Z,46.73
2022-09-20T01:07:48.027Z,48.66
2022-09-20T01:08:48.337Z,60.42
2022-09-20T01:09:48.623Z,46.89
2022-09-20T01:10:49.035Z,47.05
2022-09-20T01:11:49.267Z,47.37
2022-09-20T01:12:49.504Z,47.70
2022-09-20T01:13:49.908Z,47.86
2022-09-20T01:14:50.095Z,47.37
2022-09-20T01:15:50.405Z,47.37
2022-09-20T01:16:50.719Z,47.70
2022-09-20T01:17:51.018Z,47.70
2022-09-20T01:18:51.297Z,50.27
2022-09-20T01:19:51.650Z,48.66
2022-09-20T01:20:51.981Z,47.86
2022-09-20T01:21:52.219Z,48.50
2022-09-20T01:22:52.563Z,49.47
2022-09-20T01:23:52.856Z,48.34
2022-09-20T01:24:53.153Z,47.86
2022-09-20T01:25:53.461Z,53.50
2022-09-20T01:26:53.722Z,46.73
2022-09-20T01:27:54.030Z,47.53
2022-09-20T01:28:54.338Z,46.89
2022-09-20T01:29:54.615Z,48.02
2022-09-20T01:30:54.956Z,47.70
2022-09-20T01:31:55.344Z,48.50
2022-09-20T01:32:55.484Z,47.21
2022-09-20T01:33:55.891Z,47.70
2022-09-20T01:34:56.185Z,48.98
2022-09-20T01:35:56.489Z,47.53
2022-09-20T01:36:56.754Z,46.41
2022-09-20T01:37:57.069Z,47.53
2022-09-20T01:38:57.345Z,46.73
2022-09-20T01:39:57.683Z,49.15
2022-09-20T01:40:57.910Z,46.73
2022-09-20T01:41:58.190Z,49.15
2022-09-20T01:42:58.544Z,48.98
2022-09-20T01:43:58.844Z,46.89
2022-09-20T01:44:59.122Z,47.21
2022-09-20T01:45:59.568Z,46.73
2022-09-20T01:46:59.749Z,50.11
2022-09-20T01:48:00.082Z,46.41
2022-09-20T01:49:00.359Z,47.86
2022-09-20T01:50:00.629Z,47.21
2022-09-20T01:51:00.962Z,48.18
2022-09-20T01:52:01.263Z,48.98
2022-09-20T01:53:01.604Z,46.73
2022-09-20T01:54:01.914Z,51.88
2022-09-20T01:55:02.189Z,47.21
2022-09-20T01:56:02.492Z,56.40
2022-09-20T01:57:02.839Z,46.89
2022-09-20T01:58:03.132Z,64.29
2022-09-20T01:59:22.665Z,46.73
2022-09-20T02:00:04.797Z,46.25
2022-09-20T02:01:04.135Z,47.53
2022-09-20T02:02:04.320Z,47.86
2022-09-20T02:03:04.667Z,60.42
2022-09-20T02:04:04.945Z,47.86
2022-09-20T02:05:05.270Z,46.73
2022-09-20T02:06:05.576Z,59.62
2022-09-20T02:07:05.892Z,46.73
2022-09-20T02:08:06.304Z,58.33
2022-09-20T02:09:06.564Z,53.82
2022-09-20T02:10:06.877Z,55.91
2022-09-20T02:11:07.238Z,47.05
2022-09-20T02:12:07.508Z,46.89
2022-09-20T02:13:07.840Z,63.00
2022-09-20T02:14:08.085Z,72.83
2022-09-20T02:15:08.364Z,57.20
2022-09-20T02:16:08.706Z,46.57
2022-09-20T02:17:08.994Z,48.98
2022-09-20T02:18:09.331Z,54.46
2022-09-20T02:19:09.530Z,59.30
2022-09-20T02:20:09.816Z,52.37
2022-09-20T02:21:10.102Z,47.21
2022-09-20T02:22:10.407Z,54.14
2022-09-20T02:23:10.816Z,46.08
2022-09-20T02:24:10.981Z,46.25
2022-09-20T02:25:11.321Z,51.08
2022-09-20T02:26:11.590Z,52.37
2022-09-20T02:27:11.943Z,53.82
2022-09-20T02:28:12.241Z,56.24
2022-09-20T02:29:12.537Z,59.78
2022-09-20T02:30:12.835Z,51.24
2022-09-20T02:31:13.266Z,53.66
2022-09-20T02:32:13.460Z,52.53
2022-09-20T02:33:13.744Z,49.47
2022-09-20T02:34:14.083Z,53.33
2022-09-20T02:35:14.408Z,48.50
2022-09-20T02:36:14.750Z,48.98
2022-09-20T02:37:15.037Z,53.33
2022-09-20T02:38:15.375Z,46.89
2022-09-20T02:39:15.681Z,49.15
2022-09-20T02:40:16.142Z,51.24
2022-09-20T02:41:16.252Z,50.76
2022-09-20T02:42:16.557Z,53.66
2022-09-20T02:43:16.783Z,50.92
2022-09-20T02:44:17.188Z,50.11
2022-09-20T02:45:17.386Z,51.88
2022-09-20T02:46:17.754Z,56.72
2022-09-20T02:47:17.988Z,48.66
2022-09-20T02:48:18.261Z,50.43
2022-09-20T02:49:18.576Z,49.63
2022-09-20T02:50:18.910Z,48.66
2022-09-20T02:51:19.270Z,60.59
2022-09-20T02:52:19.562Z,53.98
2022-09-20T02:53:19.856Z,51.56
2022-09-20T02:54:20.139Z,52.85
2022-09-20T02:55:20.465Z,51.08
2022-09-20T02:56:20.790Z,50.76
2022-09-20T02:57:21.049Z,58.65
2022-09-20T02:58:21.463Z,54.95
2022-09-20T02:59:21.668Z,56.24
2022-09-20T03:00:21.966Z,54.14
2022-09-20T03:01:22.363Z,48.34
2022-09-20T03:02:22.613Z,48.34
2022-09-20T03:03:22.791Z,48.82
2022-09-20T03:04:23.477Z,52.05
2022-09-20T03:05:23.341Z,55.43
2022-09-20T03:06:23.736Z,50.43
2022-09-20T03:07:24.057Z,49.47
2022-09-20T03:08:24.289Z,48.82
2022-09-20T03:09:24.433Z,50.43
2022-09-20T03:10:24.733Z,74.77
2022-09-20T03:11:25.038Z,56.07
2022-09-20T03:12:25.404Z,50.76
2022-09-20T03:13:25.598Z,57.20
2022-09-20T03:14:25.904Z,56.40
2022-09-20T03:15:26.189Z,49.63
2022-09-20T03:16:26.446Z,72.35
2022-09-20T03:17:26.783Z,55.75
2022-09-20T03:18:27.067Z,55.59
2022-09-20T03:19:27.393Z,52.37
2022-09-20T03:20:27.724Z,52.37
2022-09-20T03:21:28.047Z,50.27
2022-09-20T03:22:28.418Z,60.42
2022-09-20T03:23:28.699Z,59.46
2022-09-20T03:24:29.028Z,58.97
2022-09-20T03:25:29.265Z,58.81
2022-09-20T03:26:29.553Z,51.24
2022-09-20T03:27:29.832Z,58.49
2022-09-20T03:28:30.056Z,53.98
2022-09-20T03:29:30.514Z,60.42
2022-09-20T03:30:30.702Z,54.62
2022-09-20T03:31:31.111Z,57.69
2022-09-20T03:32:31.355Z,53.01
2022-09-20T03:33:31.561Z,55.11
2022-09-20T03:34:31.909Z,61.39
2022-09-20T03:35:32.150Z,61.55
2022-09-20T03:36:32.373Z,53.82
2022-09-20T03:37:33.043Z,86.04
2022-09-20T03:38:32.894Z,75.57
2022-09-20T03:39:33.273Z,54.14
2022-09-20T03:40:33.582Z,50.60
2022-09-20T03:41:33.860Z,61.55
2022-09-20T03:42:34.080Z,78.31
2022-09-20T03:43:34.436Z,63.81
2022-09-20T03:44:34.770Z,66.87
2022-09-20T03:45:34.990Z,73.15
2022-09-20T03:46:35.324Z,75.89
2022-09-20T03:47:35.639Z,58.49
2022-09-20T03:48:35.834Z,70.58
2022-09-20T03:49:36.133Z,57.36
2022-09-20T03:50:36.447Z,55.59
2022-09-20T03:51:36.784Z,60.10
2022-09-20T03:52:37.189Z,52.69
2022-09-20T03:53:37.390Z,58.65
2022-09-20T03:54:37.622Z,60.42
2022-09-20T03:55:37.897Z,56.07
2022-09-20T03:56:38.273Z,57.69
2022-09-20T03:57:38.560Z,75.09
2022-09-20T03:58:38.899Z,53.82
2022-09-20T03:59:39.192Z,52.85
2022-09-20T04:00:39.494Z,60.59
2022-09-20T04:01:39.824Z,52.69
2022-09-20T04:02:40.115Z,65.42
2022-09-20T04:03:40.266Z,57.04
2022-09-20T04:04:40.544Z,54.62
2022-09-20T04:05:40.904Z,65.26
2022-09-20T04:06:41.204Z,53.66
2022-09-20T04:07:41.405Z,57.69
2022-09-20T04:08:41.687Z,54.79
2022-09-20T04:09:42.067Z,59.30
2022-09-20T04:10:42.248Z,73.32
2022-09-20T04:11:42.644Z,59.46
2022-09-20T04:12:42.952Z,56.40
2022-09-20T04:13:43.239Z,59.78
2022-09-20T04:14:43.498Z,58.65
2022-09-20T04:15:43.822Z,74.28
2022-09-20T04:16:44.156Z,65.10
2022-09-20T04:17:44.422Z,68.48
2022-09-20T04:18:44.742Z,62.20
2022-09-20T04:19:45.014Z,53.17
2022-09-20T04:20:45.187Z,63.16
2022-09-20T04:21:45.480Z,63.49
2022-09-20T04:22:45.802Z,57.20
2022-09-20T04:23:46.116Z,60.59
2022-09-20T04:24:46.347Z,74.28
2022-09-20T04:25:46.635Z,63.16
2022-09-20T04:26:47.019Z,60.75
2022-09-20T04:27:47.289Z,59.62
2022-09-20T04:28:47.635Z,72.67
2022-09-20T04:29:47.901Z,60.26
2022-09-20T04:30:48.171Z,56.56
2022-09-20T04:31:52.081Z,55.75
2022-09-20T04:32:49.776Z,52.69
2022-09-20T04:33:49.066Z,58.65
2022-09-20T04:34:49.327Z,57.20
2022-09-20T04:35:49.684Z,59.30
2022-09-20T04:36:49.937Z,55.75
2022-09-20T04:37:50.171Z,64.94
2022-09-20T04:38:50.497Z,61.71
2022-09-20T04:39:50.834Z,54.46
2022-09-20T04:40:51.144Z,62.36
2022-09-20T04:41:51.396Z,76.05
2022-09-20T04:42:51.680Z,61.23
2022-09-20T04:43:51.974Z,61.55
2022-09-20T04:44:52.290Z,55.27
2022-09-20T04:45:52.481Z,56.40
2022-09-20T04:46:55.887Z,67.84
2022-09-20T04:47:53.107Z,60.10
2022-09-20T04:48:53.402Z,74.77
2022-09-20T04:49:53.633Z,59.78
2022-09-20T04:50:53.885Z,55.91
2022-09-20T04:51:54.114Z,56.72
2022-09-20T04:52:54.429Z,61.23
2022-09-20T04:53:54.868Z,58.33
2022-09-20T04:54:55.136Z,65.58
2022-09-20T04:55:55.383Z,66.23
2022-09-20T04:56:55.591Z,73.48
2022-09-20T04:57:55.959Z,60.75
2022-09-20T04:58:56.153Z,59.30
2022-09-20T04:59:56.557Z,62.04
2022-09-20T05:00:56.810Z,60.75
2022-09-20T05:01:57.095Z,66.06
2022-09-20T05:02:57.342Z,59.14
2022-09-20T05:03:57.588Z,58.97
2022-09-20T05:04:57.803Z,61.23
2022-09-20T05:05:58.080Z,63.00
2022-09-20T05:06:58.310Z,59.62
2022-09-20T05:07:58.740Z,77.50
2022-09-20T05:08:59.299Z,65.58
2022-09-20T05:09:59.110Z,61.71
2022-09-20T05:10:59.529Z,62.20
2022-09-20T05:11:59.739Z,74.28
2022-09-20T05:12:59.992Z,66.39
2022-09-20T05:14:00.235Z,65.42
2022-09-20T05:15:00.514Z,76.05
2022-09-20T05:16:00.767Z,68.00
2022-09-20T05:17:01.113Z,77.83
2022-09-20T05:18:01.291Z,63.00
2022-09-20T05:19:01.580Z,68.00
2022-09-20T05:20:01.870Z,65.10
2022-09-20T05:21:02.128Z,72.19
2022-09-20T05:22:02.400Z,67.03
2022-09-20T05:23:02.634Z,70.09
2022-09-20T05:24:02.929Z,60.42
2022-09-20T05:25:03.189Z,62.84
2022-09-20T05:26:03.496Z,70.90
2022-09-20T05:27:03.922Z,68.00
2022-09-20T05:28:04.043Z,73.48
2022-09-20T05:29:04.290Z,61.23
2022-09-20T05:30:05.343Z,60.91
2022-09-20T05:31:04.788Z,64.45
2022-09-20T05:32:05.159Z,60.42
2022-09-20T05:33:05.414Z,72.03
2022-09-20T05:34:05.701Z,63.16
2022-09-20T05:35:05.900Z,70.42
2022-09-20T05:36:06.279Z,68.32
2022-09-20T05:37:06.513Z,61.87
2022-09-20T05:38:06.739Z,60.59
2022-09-20T05:39:06.986Z,59.78
2022-09-20T05:40:07.302Z,62.20
2022-09-20T05:41:08.397Z,65.42
2022-09-20T05:42:07.799Z,67.03
2022-09-20T05:43:08.158Z,65.26
2022-09-20T05:44:08.467Z,67.19
2022-09-20T05:45:08.689Z,66.06
2022-09-20T05:46:08.927Z,69.61
2022-09-20T05:47:09.157Z,73.80
2022-09-20T05:48:09.447Z,84.92
2022-09-20T05:49:09.700Z,76.86
2022-09-20T05:50:09.948Z,78.31
2022-09-20T05:51:10.233Z,69.45
2022-09-20T05:52:10.565Z,71.22
2022-09-20T05:53:11.830Z,65.90
2022-09-20T05:54:11.174Z,69.29
2022-09-20T05:55:11.368Z,64.45
2022-09-20T05:56:11.625Z,62.20
2022-09-20T05:57:11.926Z,61.87
2022-09-20T05:58:12.243Z,67.03
2022-09-20T05:59:12.559Z,68.16
2022-09-20T06:00:12.778Z,72.83
2022-09-20T06:01:13.059Z,73.96
2022-09-20T06:02:13.326Z,67.03
2022-09-20T06:03:13.569Z,64.61
2022-09-20T06:04:13.831Z,65.90
2022-09-20T06:05:14.090Z,61.39
2022-09-20T06:06:14.370Z,73.15
2022-09-20T06:07:14.628Z,65.58
2022-09-20T06:08:14.929Z,62.68
2022-09-20T06:09:15.659Z,62.84
2022-09-20T06:10:15.802Z,56.88
2022-09-20T06:11:16.056Z,61.87
2022-09-20T06:12:15.996Z,64.61
2022-09-20T06:13:16.288Z,63.65
2022-09-20T06:14:16.516Z,65.74
2022-09-20T06:15:16.809Z,76.70
2022-09-20T06:16:17.206Z,73.15
2022-09-20T06:17:17.277Z,63.33
2022-09-20T06:18:17.515Z,68.64
2022-09-20T06:19:17.779Z,63.97
2022-09-20T06:20:18.014Z,64.78
2022-09-20T06:21:18.280Z,60.10
2022-09-20T06:22:18.524Z,68.32
2022-09-20T06:23:18.819Z,65.90
2022-09-20T06:24:19.038Z,59.62
2022-09-20T06:25:19.301Z,57.52
2022-09-20T06:26:19.647Z,58.01
2022-09-20T06:27:19.936Z,60.75
2022-09-20T06:28:20.121Z,57.52
2022-09-20T06:29:20.352Z,55.91
2022-09-20T06:30:20.715Z,59.78
2022-09-20T06:31:20.973Z,63.49
2022-09-20T06:32:21.295Z,60.26
2022-09-20T06:33:21.478Z,62.52
2022-09-20T06:34:21.784Z,66.71
2022-09-20T06:35:22.021Z,64.45
2022-09-20T06:36:23.264Z,68.16
2022-09-20T06:37:22.571Z,63.49
2022-09-20T06:38:22.824Z,64.13
2022-09-20T06:39:23.119Z,62.68
2022-09-20T06:40:23.458Z,63.49
2022-09-20T06:41:23.708Z,64.78
2022-09-20T06:42:26.988Z,65.58
2022-09-20T06:43:24.402Z,62.36
2022-09-20T06:44:24.598Z,67.19
2022-09-20T06:45:24.895Z,73.15
2022-09-20T06:46:25.278Z,80.57
2022-09-20T06:47:25.458Z,71.38
2022-09-20T06:48:25.700Z,67.84
2022-09-20T06:49:26.009Z,67.84
2022-09-20T06:50:26.787Z,69.61
2022-09-20T06:51:26.587Z,68.64
2022-09-20T06:52:26.826Z,67.03
2022-09-20T06:53:27.127Z,65.58
2022-09-20T06:54:27.401Z,71.54
2022-09-20T06:55:29.324Z,63.81
2022-09-20T06:56:27.863Z,64.78
2022-09-20T06:57:28.145Z,69.93
2022-09-20T06:58:28.475Z,66.39
2022-09-20T06:59:28.739Z,66.06
2022-09-20T07:00:29.460Z,69.77
2022-09-20T07:01:30.579Z,69.13
2022-09-20T07:02:29.689Z,66.87
2022-09-20T07:03:29.910Z,70.09
2022-09-20T07:04:30.165Z,67.68
2022-09-20T07:05:30.515Z,66.23
2022-09-20T07:06:30.787Z,72.19
2022-09-20T07:07:31.121Z,65.10
2022-09-20T07:08:31.336Z,69.61
2022-09-20T07:09:31.584Z,73.64
2022-09-20T07:10:31.824Z,64.13
2022-09-20T07:11:32.108Z,69.13
2022-09-20T07:12:32.457Z,70.58
2022-09-20T07:13:32.676Z,65.10
2022-09-20T07:14:32.954Z,68.48
2022-09-20T07:15:33.178Z,72.03
2022-09-20T07:16:33.532Z,63.33
2022-09-20T07:17:33.701Z,69.13
2022-09-20T07:18:33.967Z,66.55
2022-09-20T07:19:34.276Z,70.42
2022-09-20T07:20:34.480Z,64.61
2022-09-20T07:21:34.723Z,68.16
2022-09-20T07:22:35.010Z,67.84
2022-09-20T07:23:35.257Z,67.84
2022-09-20T07:24:35.511Z,67.68
2022-09-20T07:25:35.892Z,71.70
2022-09-20T07:26:36.046Z,60.91
2022-09-20T07:27:36.233Z,69.45
2022-09-20T07:28:36.622Z,59.94
2022-09-20T07:29:36.908Z,63.49
2022-09-20T07:30:37.163Z,65.74
2022-09-20T07:31:37.496Z,60.42
2022-09-20T07:32:37.923Z,61.71
2022-09-20T07:33:38.364Z,66.71
2022-09-20T07:34:38.185Z,68.80
2022-09-20T07:35:38.418Z,65.90
2022-09-20T07:36:38.676Z,68.16
2022-09-20T07:37:38.913Z,71.38
2022-09-20T07:38:39.169Z,69.45
2022-09-20T07:39:39.479Z,66.06
2022-09-20T07:40:39.797Z,67.19
2022-09-20T07:41:40.024Z,66.55
2022-09-20T07:42:40.431Z,68.96
2022-09-20T07:43:40.523Z,65.42
2022-09-20T07:44:40.766Z,66.39
2022-09-20T07:45:41.114Z,63.97
2022-09-20T07:46:41.330Z,67.35
2022-09-20T07:47:41.682Z,64.13
2022-09-20T07:48:42.001Z,63.97
2022-09-20T07:49:42.243Z,63.97
2022-09-20T07:50:42.530Z,58.49
2022-09-20T07:51:42.777Z,70.42
2022-09-20T07:52:43.096Z,69.13
2022-09-20T07:53:43.353Z,71.22
2022-09-20T07:54:43.622Z,67.68
2022-09-20T07:55:43.947Z,67.19
2022-09-20T07:56:44.209Z,60.59
2022-09-20T07:57:44.534Z,65.42
2022-09-20T07:58:47.406Z,85.08
2022-09-20T07:59:45.990Z,70.74
2022-09-20T08:00:45.313Z,64.29
2022-09-20T08:01:45.640Z,70.58
2022-09-20T08:02:46.798Z,72.03
2022-09-20T08:03:46.201Z,66.87
2022-09-20T08:04:46.459Z,77.83
2022-09-20T08:05:46.731Z,69.93
2022-09-20T08:06:46.985Z,67.51
2022-09-20T08:07:47.205Z,64.29
2022-09-20T08:08:47.433Z,67.03
2022-09-20T08:09:47.843Z,64.61
2022-09-20T08:10:48.098Z,62.52
2022-09-20T08:11:48.379Z,66.06
2022-09-20T08:14:06.910Z,68.48
2022-09-20T08:14:50.655Z,68.64
2022-09-20T08:15:49.472Z,73.64
2022-09-20T08:16:49.861Z,64.78
2022-09-20T08:17:50.028Z,84.59
2022-09-20T08:18:50.311Z,65.90
2022-09-20T08:19:50.611Z,67.03
2022-09-20T08:20:50.899Z,75.41
2022-09-20T08:21:51.095Z,82.34
2022-09-20T08:23:12.594Z,70.09
2022-09-20T08:23:52.769Z,74.77
2022-09-20T08:24:51.809Z,83.79
2022-09-20T08:25:52.047Z,71.06
2022-09-20T08:26:52.355Z,73.80
2022-09-20T08:27:52.602Z,72.51
2022-09-20T08:28:53.251Z,70.90
2022-09-20T08:29:53.143Z,69.77
2022-09-20T08:30:53.460Z,72.51
2022-09-20T08:31:53.717Z,67.51
2022-09-20T08:32:53.985Z,76.70
2022-09-20T08:33:54.233Z,71.70
2022-09-20T08:34:54.488Z,76.22
2022-09-20T08:35:57.640Z,81.86
2022-09-20T08:36:54.964Z,72.35
2022-09-20T08:37:55.311Z,70.25
2022-09-20T08:39:57.802Z,76.70
2022-09-20T08:40:56.113Z,75.57
2022-09-20T08:41:56.398Z,75.89
2022-09-20T08:42:56.654Z,80.57
2022-09-20T08:43:56.991Z,80.73
2022-09-20T08:44:58.923Z,72.03
2022-09-20T08:45:57.495Z,69.13
2022-09-20T08:46:57.723Z,66.55
2022-09-20T08:47:58.967Z,66.23
2022-09-20T08:48:58.452Z,65.58
2022-09-20T08:49:58.525Z,69.29
2022-09-20T08:50:59.083Z,71.70
2022-09-20T08:51:59.024Z,64.45
2022-09-20T08:53:00.649Z,74.77
2022-09-20T08:53:59.484Z,68.80
2022-09-20T08:54:59.745Z,66.55
2022-09-20T08:56:00.014Z,72.19
2022-09-20T08:57:00.311Z,65.26
2022-09-20T08:58:02.944Z,66.55
2022-09-20T08:59:07.763Z,67.51
2022-09-20T09:00:01.180Z,68.16
2022-09-20T09:01:01.478Z,67.84
2022-09-20T09:02:01.858Z,69.61
2022-09-20T09:03:01.997Z,70.74
2022-09-20T09:04:02.210Z,64.61
2022-09-20T09:05:02.483Z,71.22
2022-09-20T09:06:02.735Z,67.03
2022-09-20T09:07:03.010Z,65.58
2022-09-20T09:08:04.701Z,68.96
2022-09-20T09:09:03.582Z,63.33
2022-09-20T09:10:03.752Z,63.49
2022-09-20T09:11:04.018Z,67.84
2022-09-20T09:12:04.329Z,65.58
2022-09-20T09:13:04.674Z,65.90
2022-09-20T09:14:04.971Z,68.64
2022-09-20T09:15:05.193Z,69.77
2022-09-20T09:16:05.475Z,65.42
2022-09-20T09:17:05.842Z,68.16
2022-09-20T09:18:05.997Z,65.10
2022-09-20T09:19:06.393Z,61.71
2022-09-20T09:20:06.725Z,65.58
2022-09-20T09:21:06.912Z,65.10
2022-09-20T09:22:07.195Z,65.26
2022-09-20T09:23:07.489Z,68.00
2022-09-20T09:24:07.754Z,64.61
2022-09-20T09:25:07.982Z,62.04
2022-09-20T09:26:08.383Z,67.19
2022-09-20T09:27:08.562Z,65.90
2022-09-20T09:28:09.831Z,66.71
2022-09-20T09:29:09.030Z,68.32
2022-09-20T09:30:09.354Z,68.48
2022-09-20T09:31:09.678Z,66.39
2022-09-20T09:32:09.982Z,69.13
2022-09-20T09:33:10.245Z,64.61
2022-09-20T09:34:10.445Z,61.55
2022-09-20T09:35:10.748Z,71.54
2022-09-20T09:36:11.044Z,74.44
2022-09-20T09:37:11.309Z,64.13
2022-09-20T09:38:11.570Z,66.55
2022-09-20T09:39:11.853Z,62.20
2022-09-20T09:40:12.127Z,64.13
2022-09-20T09:41:12.373Z,68.00
2022-09-20T09:42:12.606Z,64.29
2022-09-20T09:43:12.860Z,67.19
2022-09-20T09:44:13.130Z,69.13
2022-09-20T09:45:13.935Z,62.36
2022-09-20T09:46:13.879Z,67.51
2022-09-20T09:47:13.911Z,79.60
2022-09-20T09:48:14.212Z,75.25
2022-09-20T09:49:14.520Z,64.94
2022-09-20T09:50:14.828Z,65.26
2022-09-20T09:51:15.123Z,64.78
2022-09-20T09:52:15.378Z,63.65
2022-09-20T09:53:15.596Z,69.13
2022-09-20T09:54:15.873Z,69.45
2022-09-20T09:55:16.130Z,67.84
2022-09-20T09:56:16.374Z,63.49
2022-09-20T09:57:16.688Z,67.35
2022-09-20T09:58:16.935Z,63.97
2022-09-20T09:59:17.201Z,71.06
2022-09-20T10:00:21.968Z,68.48
2022-09-20T10:01:17.798Z,67.51
2022-09-20T10:02:18.050Z,68.96
2022-09-20T10:03:18.356Z,65.26
2022-09-20T10:04:18.592Z,64.45
2022-09-20T10:05:18.881Z,69.45
2022-09-20T10:06:19.135Z,63.81
2022-09-20T10:07:19.420Z,65.90
2022-09-20T10:08:19.683Z,66.39
2022-09-20T10:09:19.965Z,67.68
2022-09-20T10:10:20.311Z,63.81
2022-09-20T10:11:20.437Z,66.06
2022-09-20T10:12:20.749Z,73.80
2022-09-20T10:13:21.006Z,70.58
2022-09-20T10:14:21.366Z,70.42
2022-09-20T10:15:21.621Z,64.29
2022-09-20T10:16:21.881Z,64.94
2022-09-20T10:17:23.061Z,68.48
2022-09-20T10:18:22.536Z,67.03
2022-09-20T10:19:22.968Z,64.78
2022-09-20T10:20:23.096Z,67.84
2022-09-20T10:21:23.744Z,71.22
2022-09-20T10:22:23.717Z,68.00
2022-09-20T10:23:51.494Z,73.96
2022-09-20T10:24:25.373Z,69.77
2022-09-20T10:25:24.577Z,62.04
2022-09-20T10:26:24.811Z,67.51
2022-09-20T10:27:26.227Z,65.90
2022-09-20T10:28:25.510Z,66.23
2022-09-20T10:29:25.745Z,63.33
2022-09-20T10:30:26.069Z,65.42
2022-09-20T10:31:26.493Z,65.58
2022-09-20T10:32:26.713Z,64.61
2022-09-20T10:33:26.884Z,66.23
2022-09-20T10:34:27.324Z,65.74
2022-09-20T10:35:27.560Z,65.42
2022-09-20T10:36:27.691Z,77.18
2022-09-20T10:37:28.071Z,64.94
2022-09-20T10:38:28.393Z,61.87
2022-09-20T10:39:28.492Z,64.94
2022-09-20T10:40:28.862Z,66.55
2022-09-20T10:41:29.002Z,69.29
2022-09-20T10:42:29.425Z,63.97
2022-09-20T10:43:29.620Z,68.00
2022-09-20T10:44:29.853Z,69.93
2022-09-20T10:45:59.541Z,80.73
2022-09-20T10:46:32.952Z,59.78
2022-09-20T10:47:30.659Z,61.07
2022-09-20T10:48:30.915Z,65.10
2022-09-20T10:49:31.168Z,61.39
2022-09-20T10:50:31.484Z,61.87
2022-09-20T10:51:31.688Z,65.90
2022-09-20T10:52:32.022Z,66.71
2022-09-20T10:53:32.271Z,67.03
2022-09-20T10:54:32.498Z,69.61
2022-09-20T10:55:32.767Z,66.39
2022-09-20T10:56:33.517Z,67.35
2022-09-20T10:57:33.328Z,66.39
2022-09-20T10:58:33.583Z,66.87
2022-09-20T10:59:33.878Z,68.96
2022-09-20T11:00:34.155Z,72.99
2022-09-20T11:01:34.500Z,66.39
2022-09-20T11:02:34.740Z,68.16
2022-09-20T11:03:35.021Z,70.74
2022-09-20T11:04:35.248Z,69.61
2022-09-20T11:05:35.507Z,67.35
2022-09-20T11:06:35.807Z,68.80
2022-09-20T11:07:36.135Z,67.51
2022-09-20T11:08:36.348Z,67.51
2022-09-20T11:09:36.610Z,66.39
2022-09-20T11:10:36.852Z,68.00
2022-09-20T11:11:37.071Z,65.10
2022-09-20T11:12:37.386Z,68.00
2022-09-20T11:13:37.656Z,67.84
2022-09-20T11:14:37.846Z,70.42
2022-09-20T11:15:38.102Z,67.35
2022-09-20T11:16:38.433Z,63.16
2022-09-20T11:17:38.739Z,66.39
2022-09-20T11:18:39.020Z,64.78
2022-09-20T11:19:39.215Z,65.74
2022-09-20T11:20:39.557Z,67.03
2022-09-20T11:21:39.739Z,68.00
2022-09-20T11:22:39.987Z,72.19
2022-09-20T11:23:40.220Z,69.45
2022-09-20T11:24:40.463Z,65.42
2022-09-20T11:25:40.849Z,71.54
2022-09-20T11:26:40.964Z,66.39
2022-09-20T11:27:41.317Z,70.25
2022-09-20T11:28:41.462Z,67.35
2022-09-20T11:29:41.710Z,64.94
2022-09-20T11:30:41.980Z,69.13
2022-09-20T11:31:42.340Z,64.13
2022-09-20T11:32:42.609Z,66.23
2022-09-20T11:33:42.860Z,64.61
2022-09-20T11:34:43.136Z,66.71
2022-09-20T11:35:43.402Z,64.29
2022-09-20T11:36:43.678Z,74.77
2022-09-20T11:37:44.034Z,67.35
2022-09-20T11:38:44.259Z,67.35
2022-09-20T11:39:44.542Z,71.22
2022-09-20T11:40:44.934Z,63.00
2022-09-20T11:41:45.107Z,68.16
2022-09-20T11:42:45.350Z,69.29
2022-09-20T11:43:45.601Z,73.32
2022-09-20T11:44:45.869Z,67.35
2022-09-20T11:45:46.194Z,67.84
2022-09-20T11:46:46.410Z,77.34
2022-09-20T11:47:55.551Z,71.06
2022-09-20T11:48:47.971Z,64.45
2022-09-20T11:49:47.126Z,66.06
2022-09-20T11:50:47.387Z,65.10
2022-09-20T11:51:47.628Z,66.55
2022-09-20T11:52:47.988Z,70.25
2022-09-20T11:53:48.277Z,64.13
2022-09-20T11:54:48.560Z,64.45
2022-09-20T11:55:48.852Z,66.71
2022-09-20T11:56:49.066Z,64.29
2022-09-20T11:57:49.376Z,60.42
2022-09-20T11:58:49.598Z,64.61
2022-09-20T11:59:49.892Z,60.59
2022-09-20T12:00:50.107Z,62.20
2022-09-20T12:01:50.616Z,59.78
2022-09-20T12:02:50.847Z,62.68
2022-09-20T12:03:51.030Z,62.20
2022-09-20T12:04:52.065Z,64.45
2022-09-20T12:05:51.674Z,62.52
2022-09-20T12:06:51.881Z,63.49
2022-09-20T12:07:52.132Z,60.75
2022-09-20T12:08:52.442Z,64.45
2022-09-20T12:09:52.717Z,64.45
2022-09-20T12:10:52.951Z,69.77
2022-09-20T12:11:53.214Z,60.59
2022-09-20T12:12:53.611Z,64.13
2022-09-20T12:13:53.919Z,61.71
2022-09-20T12:14:54.102Z,64.13
2022-09-20T12:15:54.377Z,64.45
2022-09-20T12:16:54.664Z,64.78
2022-09-20T12:17:55.119Z,60.59
2022-09-20T12:18:55.210Z,67.19
2022-09-20T12:19:59.373Z,63.33
2022-09-20T12:20:55.738Z,62.36
2022-09-20T12:21:55.976Z,64.78
2022-09-20T12:22:56.226Z,65.26
2022-09-20T12:23:56.535Z,60.75
2022-09-20T12:24:56.749Z,65.90
2022-09-20T12:26:01.026Z,69.13
2022-09-20T12:26:57.380Z,68.16
2022-09-20T12:27:57.620Z,63.97
2022-09-20T12:28:57.843Z,63.65
2022-09-20T12:29:58.110Z,62.68
2022-09-20T12:30:58.376Z,66.55
2022-09-20T12:31:58.675Z,64.45
2022-09-20T12:32:58.895Z,61.23
2022-09-20T12:33:59.210Z,63.65
2022-09-20T12:34:59.410Z,65.42
2022-09-20T12:35:59.703Z,72.19
2022-09-20T12:36:59.887Z,68.96
2022-09-20T12:38:00.215Z,66.55
2022-09-20T12:39:00.387Z,64.78
2022-09-20T12:40:00.737Z,61.07
2022-09-20T12:41:00.970Z,61.55
2022-09-20T12:42:01.204Z,63.33
2022-09-20T12:43:01.415Z,70.58
2022-09-20T12:44:01.785Z,63.49
2022-09-20T12:45:02.016Z,63.97
2022-09-20T12:46:06.402Z,60.75
2022-09-20T12:47:03.563Z,72.67
2022-09-20T12:48:02.792Z,65.42
2022-09-20T12:49:03.115Z,70.09
2022-09-20T12:50:03.413Z,63.00
2022-09-20T12:51:03.668Z,66.71
2022-09-20T12:52:03.942Z,64.45
2022-09-20T12:53:04.212Z,64.61
2022-09-20T12:54:04.455Z,63.49
2022-09-20T12:55:08.945Z,60.59
2022-09-20T12:56:05.986Z,64.94
2022-09-20T12:57:05.215Z,66.71
2022-09-20T12:58:05.547Z,65.10